createdAt,value
2023-10-24T00:02:03.614Z,73.51
2023-10-24T00:04:30.465Z,74.67
2023-10-24T00:06:57.261Z,75.01
2023-10-24T00:09:24.019Z,75.05
2023-10-24T00:11:50.803Z,75.37
2023-10-24T00:14:17.631Z,75.10
2023-10-24T00:16:44.575Z,74.32
2023-10-24T00:19:11.940Z,74.56
2023-10-24T00:21:38.776Z,74.41
2023-10-24T00:24:05.746Z,74.04
2023-10-24T00:26:32.494Z,74.42
2023-10-24T00:28:59.127Z,75.16
2023-10-24T00:31:26.028Z,75.10
2023-10-24T00:33:52.778Z,75.33
2023-10-24T00:36:19.526Z,75.47
2023-10-24T00:38:46.236Z,75.62
2023-10-24T00:41:13.037Z,75.12
2023-10-24T00:43:39.806Z,75.53
2023-10-24T00:46:08.407Z,75.52
2023-10-24T00:48:35.931Z,75.65
2023-10-24T00:51:02.832Z,75.93
2023-10-24T00:53:30.140Z,75.10
2023-10-24T00:55:57.762Z,74.98
2023-10-24T00:58:25.049Z,74.94
2023-10-24T01:00:52.296Z,74.87
2023-10-24T01:03:19.365Z,74.75
2023-10-24T01:05:48.238Z,74.52
2023-10-24T01:08:15.080Z,74.64
2023-10-24T01:10:41.985Z,74.16
2023-10-24T01:13:09.459Z,74.02
2023-10-24T01:15:36.333Z,74.05
2023-10-24T01:18:04.473Z,73.97
2023-10-24T01:20:31.433Z,74.01
2023-10-24T01:22:58.351Z,74.04
2023-10-24T01:25:26.110Z,74.25
2023-10-24T01:27:56.314Z,74.40
2023-10-24T01:30:23.362Z,74.21
2023-10-24T01:32:50.343Z,74.05
2023-10-24T01:35:17.230Z,74.87
2023-10-24T01:37:44.072Z,74.75
2023-10-24T01:40:11.241Z,75.20
2023-10-24T01:42:38.540Z,75.40
2023-10-24T01:45:06.007Z,75.26
2023-10-24T01:47:33.038Z,75.62
2023-10-24T01:49:59.899Z,75.59
2023-10-24T01:52:26.699Z,75.95
2023-10-24T01:54:53.544Z,76.04
2023-10-24T01:57:20.344Z,76.13
2023-10-24T01:59:47.138Z,76.50
2023-10-24T02:02:13.980Z,76.35
2023-10-24T02:04:40.959Z,76.13
2023-10-24T02:07:07.990Z,76.05
2023-10-24T02:09:34.815Z,76.03
2023-10-24T02:12:02.227Z,75.82
2023-10-24T02:14:29.513Z,75.65
2023-10-24T02:16:56.770Z,75.81
2023-10-24T02:19:24.498Z,75.69
2023-10-24T02:21:51.232Z,75.89
2023-10-24T02:24:18.032Z,75.81
2023-10-24T02:26:44.991Z,75.73
2023-10-24T02:29:11.838Z,75.51
2023-10-24T02:31:38.832Z,75.80
2023-10-24T02:34:05.738Z,75.33
2023-10-24T02:36:32.433Z,74.97
2023-10-24T02:38:59.137Z,75.22
2023-10-24T02:41:26.072Z,74.93
2023-10-24T02:43:52.950Z,75.15
2023-10-24T02:46:19.721Z,75.13
2023-10-24T02:48:47.349Z,75.09
2023-10-24T02:51:14.141Z,74.93
2023-10-24T02:53:40.953Z,74.69
2023-10-24T02:56:07.850Z,74.43
2023-10-24T02:58:34.619Z,74.38
2023-10-24T03:01:05.940Z,74.39
2023-10-24T03:03:34.101Z,74.33
2023-10-24T03:06:01.260Z,73.91
2023-10-24T03:08:28.074Z,73.58
2023-10-24T03:10:54.900Z,73.92
2023-10-24T03:13:21.987Z,74.37
2023-10-24T03:15:48.988Z,74.30
2023-10-24T03:18:15.868Z,74.50
2023-10-24T03:20:42.774Z,74.13
2023-10-24T03:23:10.748Z,74.58
2023-10-24T03:25:42.784Z,74.46
2023-10-24T03:28:09.697Z,74.78
2023-10-24T03:30:36.500Z,74.76
2023-10-24T03:33:04.288Z,74.54
2023-10-24T03:35:33.889Z,74.16
2023-10-24T03:38:02.523Z,74.60
2023-10-24T03:40:29.510Z,75.42
2023-10-24T03:42:56.887Z,75.33
2023-10-24T03:45:23.946Z,75.04
2023-10-24T03:47:51.043Z,75.11
2023-10-24T03:50:17.919Z,75.74
2023-10-24T03:52:45.277Z,75.98
2023-10-24T03:55:12.917Z,76.19
2023-10-24T03:57:40.525Z,75.97
2023-10-24T04:00:11.546Z,76.41
2023-10-24T04:02:38.397Z,76.22
2023-10-24T04:05:06.310Z,76.45
2023-10-24T04:07:33.121Z,76.88
2023-10-24T04:10:00.006Z,76.79
2023-10-24T04:12:26.694Z,76.87
2023-10-24T04:14:53.602Z,76.98
2023-10-24T04:17:20.415Z,78.19
2023-10-24T04:19:47.528Z,78.02
2023-10-24T04:22:15.425Z,78.01
2023-10-24T04:24:42.420Z,77.28
2023-10-24T04:27:10.670Z,76.72
2023-10-24T04:29:37.506Z,76.80
2023-10-24T04:32:05.326Z,76.17
2023-10-24T04:34:32.258Z,75.96
2023-10-24T04:36:59.489Z,76.47
2023-10-24T04:39:26.655Z,75.42
2023-10-24T04:41:53.528Z,75.10
2023-10-24T04:44:20.670Z,75.44
2023-10-24T04:46:47.796Z,75.43
2023-10-24T04:49:17.311Z,75.50
2023-10-24T04:51:44.441Z,75.96
2023-10-24T04:54:11.393Z,76.05
2023-10-24T04:56:38.210Z,76.04
2023-10-24T04:59:05.092Z,76.24
2023-10-24T05:01:38.812Z,76.11
2023-10-24T05:04:07.405Z,75.98
2023-10-24T05:06:34.670Z,75.53
2023-10-24T05:09:01.385Z,75.73
2023-10-24T05:11:28.249Z,76.11
2023-10-24T05:13:54.959Z,76.14
2023-10-24T05:16:21.907Z,76.87
2023-10-24T05:18:48.858Z,77.09
2023-10-24T05:21:15.706Z,77.22
2023-10-24T05:23:42.548Z,76.87
2023-10-24T05:26:09.366Z,77.17
2023-10-24T05:28:36.175Z,77.02
2023-10-24T05:31:09.368Z,76.98
2023-10-24T05:33:36.936Z,76.90
2023-10-24T05:36:04.568Z,77.27
2023-10-24T05:38:31.664Z,77.06
2023-10-24T05:40:58.488Z,77.03
2023-10-24T05:43:25.354Z,76.88
2023-10-24T05:45:52.189Z,76.44
2023-10-24T05:48:19.493Z,76.12
2023-10-24T05:50:46.264Z,76.07
2023-10-24T05:53:13.080Z,76.62
2023-10-24T05:55:42.991Z,76.51
2023-10-24T05:58:09.740Z,76.79
2023-10-24T06:00:37.040Z,76.55
2023-10-24T06:03:04.119Z,76.67
2023-10-24T06:05:31.064Z,76.27
2023-10-24T06:07:57.977Z,75.83
2023-10-24T06:10:24.871Z,75.69
2023-10-24T06:12:51.654Z,75.46
2023-10-24T06:15:18.469Z,75.29
2023-10-24T06:17:45.295Z,75.05
2023-10-24T06:20:12.263Z,75.67
2023-10-24T06:22:39.119Z,75.13
2023-10-24T06:25:06.172Z,75.43
2023-10-24T06:27:32.907Z,75.33
2023-10-24T06:29:59.653Z,75.28
2023-10-24T06:32:26.494Z,74.95
2023-10-24T06:34:53.368Z,75.18
2023-10-24T06:37:20.146Z,74.96
2023-10-24T06:39:47.917Z,74.86
2023-10-24T06:42:14.766Z,74.67
2023-10-24T06:44:41.578Z,74.92
2023-10-24T06:47:08.358Z,74.89
2023-10-24T06:49:35.197Z,74.76
2023-10-24T06:52:02.033Z,74.45
2023-10-24T06:54:28.872Z,73.90
2023-10-24T06:56:55.720Z,73.19
2023-10-24T06:59:22.473Z,73.55
2023-10-24T07:01:49.530Z,73.83
2023-10-24T07:04:16.368Z,73.96
2023-10-24T07:06:44.104Z,73.66
2023-10-24T07:09:10.868Z,73.71
2023-10-24T07:11:37.658Z,73.86
2023-10-24T07:14:05.173Z,73.62
2023-10-24T07:16:31.918Z,73.92
2023-10-24T07:18:58.691Z,73.87
2023-10-24T07:21:25.444Z,73.78
2023-10-24T07:23:52.325Z,73.74
2023-10-24T07:26:20.196Z,73.93
2023-10-24T07:28:47.095Z,73.90
2023-10-24T07:31:15.176Z,74.43
2023-10-24T07:33:43.821Z,73.74
2023-10-24T07:36:10.648Z,73.74
2023-10-24T07:38:37.582Z,73.94
2023-10-24T07:41:05.231Z,74.15
2023-10-24T07:43:32.323Z,74.02
2023-10-24T07:45:59.401Z,73.72
2023-10-24T07:48:26.334Z,73.85
2023-10-24T07:50:54.069Z,74.20
2023-10-24T07:53:25.644Z,73.39
2023-10-24T07:55:53.782Z,73.85
2023-10-24T07:58:21.123Z,73.66
2023-10-24T08:00:49.136Z,73.22
2023-10-24T08:03:17.576Z,73.17
2023-10-24T08:05:45.325Z,73.03
2023-10-24T08:08:12.145Z,72.32
2023-10-24T08:10:39.620Z,71.81
2023-10-24T08:13:06.345Z,71.06
2023-10-24T08:15:33.728Z,70.55
2023-10-24T08:18:00.591Z,70.14
2023-10-24T08:20:28.197Z,70.40
2023-10-24T08:22:56.082Z,70.28
2023-10-24T08:25:23.122Z,69.91
2023-10-24T08:27:50.022Z,69.51
2023-10-24T08:30:16.970Z,69.49
2023-10-24T08:32:43.840Z,69.40
2023-10-24T08:35:10.763Z,69.03
2023-10-24T08:37:37.719Z,68.24
2023-10-24T08:40:05.274Z,68.68
2023-10-24T08:42:32.470Z,68.75
2023-10-24T08:45:01.156Z,67.33
2023-10-24T08:47:29.682Z,67.49
2023-10-24T08:49:57.937Z,67.71
2023-10-24T08:52:31.266Z,67.99
2023-10-24T08:55:02.848Z,67.76
2023-10-24T08:57:32.677Z,67.76
2023-10-24T09:00:01.704Z,67.90
2023-10-24T09:02:29.484Z,68.33
2023-10-24T09:04:56.619Z,68.18
2023-10-24T09:07:23.678Z,67.79
2023-10-24T09:09:50.972Z,68.06
2023-10-24T09:12:18.017Z,68.41
2023-10-24T09:14:54.247Z,67.61
2023-10-24T09:17:24.366Z,67.41
2023-10-24T09:19:52.124Z,66.67
2023-10-24T09:22:19.235Z,66.81
2023-10-24T09:24:51.344Z,66.66
2023-10-24T09:27:20.262Z,66.44
2023-10-24T09:29:51.135Z,66.46
2023-10-24T09:32:19.008Z,65.36
2023-10-24T09:34:47.340Z,65.71
2023-10-24T09:37:15.153Z,66.05
2023-10-24T09:40:01.452Z,65.60
2023-10-24T09:42:33.293Z,66.01
2023-10-24T09:45:08.079Z,65.38
2023-10-24T09:47:35.984Z,65.13
2023-10-24T09:50:04.558Z,64.46
2023-10-24T09:52:31.814Z,65.39
2023-10-24T09:54:59.887Z,64.96
2023-10-24T09:57:28.070Z,64.64
2023-10-24T09:59:58.063Z,64.11
2023-10-24T10:02:27.658Z,63.96
2023-10-24T10:04:54.837Z,63.29
2023-10-24T10:07:22.917Z,63.98
2023-10-24T10:10:06.694Z,63.95
2023-10-24T10:12:35.588Z,63.28
2023-10-24T10:15:27.839Z,63.53
2023-10-24T10:18:06.855Z,63.58
2023-10-24T10:20:51.849Z,63.75
2023-10-24T10:23:21.446Z,63.72
2023-10-24T10:26:19.846Z,63.62
2023-10-24T10:29:11.797Z,63.51
2023-10-24T10:32:36.085Z,64.14
2023-10-24T10:34:47.535Z,64.03
2023-10-24T10:37:14.645Z,63.91
2023-10-24T10:39:41.608Z,64.40
2023-10-24T10:43:03.788Z,63.57
2023-10-24T10:45:33.703Z,63.24
2023-10-24T10:48:07.682Z,62.59
2023-10-24T10:50:37.116Z,62.01
2023-10-24T10:53:41.635Z,61.17
2023-10-24T10:56:27.279Z,60.39
2023-10-24T10:59:06.187Z,60.50
2023-10-24T11:01:52.408Z,60.79
2023-10-24T11:04:19.555Z,61.17
2023-10-24T11:07:00.447Z,61.24
2023-10-24T11:09:39.162Z,61.36
2023-10-24T11:12:26.919Z,61.27
2023-10-24T11:15:25.274Z,62.91
2023-10-24T11:17:52.764Z,63.43
2023-10-24T11:20:23.342Z,63.60
2023-10-24T11:22:51.860Z,63.80
2023-10-24T11:25:19.040Z,63.22
2023-10-24T11:27:48.096Z,64.09
2023-10-24T11:30:15.518Z,64.50
2023-10-24T11:32:42.506Z,65.03
2023-10-24T11:35:11.770Z,65.51
2023-10-24T11:37:38.679Z,65.44
2023-10-24T11:40:07.078Z,65.50
2023-10-24T11:42:34.046Z,65.16
2023-10-24T11:45:00.799Z,64.94
2023-10-24T11:47:27.660Z,65.13
2023-10-24T11:49:54.587Z,65.33
2023-10-24T11:52:21.449Z,64.84
2023-10-24T11:54:53.459Z,63.81
2023-10-24T11:57:26.614Z,63.57
2023-10-24T11:59:55.354Z,63.83
2023-10-24T12:02:22.488Z,63.47
2023-10-24T12:04:51.301Z,63.40
2023-10-24T12:07:18.316Z,63.88
2023-10-24T12:09:45.201Z,63.29
2023-10-24T12:12:13.751Z,63.27
2023-10-24T12:14:43.052Z,62.60
2023-10-24T12:17:11.056Z,62.05
2023-10-24T12:19:38.882Z,62.03
2023-10-24T12:22:05.653Z,61.88
2023-10-24T12:24:32.599Z,61.71
2023-10-24T12:26:59.351Z,61.51
2023-10-24T12:29:26.193Z,61.55
2023-10-24T12:31:53.121Z,61.65
2023-10-24T12:34:19.957Z,61.37
2023-10-24T12:36:48.348Z,61.71
2023-10-24T12:39:15.283Z,61.67
2023-10-24T12:41:42.118Z,61.37
2023-10-24T12:44:08.891Z,61.53
2023-10-24T12:46:35.912Z,61.29
2023-10-24T12:49:03.179Z,61.33
2023-10-24T12:51:30.434Z,61.31
2023-10-24T12:53:57.385Z,60.85
2023-10-24T12:56:24.051Z,61.07
2023-10-24T12:58:51.724Z,61.25
2023-10-24T13:01:19.481Z,60.98
2023-10-24T13:03:46.488Z,60.93
2023-10-24T13:06:13.232Z,61.36
2023-10-24T13:08:40.070Z,61.55
2023-10-24T13:11:06.885Z,61.43
2023-10-24T13:13:33.722Z,61.65
2023-10-24T13:16:00.545Z,61.64
2023-10-24T13:18:27.462Z,61.67
2023-10-24T13:20:54.172Z,61.76
2023-10-24T13:23:20.968Z,61.80
2023-10-24T13:25:47.946Z,61.96
2023-10-24T13:28:14.882Z,62.14
2023-10-24T13:30:47.194Z,62.02
2023-10-24T13:33:19.606Z,62.38
2023-10-24T13:38:16.458Z,62.45
2023-10-24T13:40:43.277Z,62.56
2023-10-24T13:43:09.989Z,62.60
2023-10-24T13:45:36.859Z,62.95
2023-10-24T13:48:03.981Z,62.70
2023-10-24T13:50:30.849Z,62.59
2023-10-24T13:52:58.700Z,62.77
2023-10-24T13:55:25.505Z,62.96
2023-10-24T13:57:52.558Z,62.96
2023-10-24T14:00:19.519Z,63.06
2023-10-24T14:02:46.539Z,63.18
2023-10-24T14:05:13.468Z,62.85
2023-10-24T14:07:40.376Z,62.50
2023-10-24T14:10:08.051Z,62.54
2023-10-24T14:12:35.009Z,62.00
2023-10-24T14:15:01.898Z,62.04
2023-10-24T14:17:28.696Z,62.04
2023-10-24T14:19:55.652Z,62.02
2023-10-24T14:22:22.810Z,61.67
2023-10-24T14:24:49.617Z,61.77
2023-10-24T14:27:16.510Z,61.76
2023-10-24T14:29:43.536Z,61.85
2023-10-24T14:32:10.309Z,62.32
2023-10-24T14:34:37.201Z,62.83
2023-10-24T14:37:04.842Z,63.04
2023-10-24T14:39:32.130Z,63.53
2023-10-24T14:42:01.300Z,63.82
2023-10-24T14:44:28.084Z,64.19
2023-10-24T14:46:56.029Z,64.54
2023-10-24T14:49:23.106Z,64.46
2023-10-24T14:51:49.955Z,64.92
2023-10-24T14:54:16.867Z,64.61
2023-10-24T14:56:43.830Z,64.85
2023-10-24T14:59:10.783Z,65.15
2023-10-24T15:01:37.842Z,64.76
2023-10-24T15:04:04.857Z,64.64
2023-10-24T15:06:32.187Z,64.56
2023-10-24T15:08:59.892Z,64.91
2023-10-24T15:11:26.648Z,65.16
2023-10-24T15:13:53.451Z,64.58
2023-10-24T15:16:20.221Z,64.84
2023-10-24T15:18:46.988Z,64.93
2023-10-24T15:21:13.675Z,65.03
2023-10-24T15:23:40.843Z,64.90
2023-10-24T15:26:07.674Z,64.86
2023-10-24T15:28:34.556Z,64.88
2023-10-24T15:31:01.391Z,64.88
2023-10-24T15:33:28.203Z,65.17
2023-10-24T15:35:55.641Z,65.17
2023-10-24T15:38:25.611Z,65.60
2023-10-24T15:40:52.653Z,65.80
2023-10-24T15:43:19.579Z,65.53
2023-10-24T15:46:07.547Z,66.15
2023-10-24T15:48:36.846Z,66.16
2023-10-24T15:51:04.078Z,66.74
2023-10-24T15:53:31.927Z,66.84
2023-10-24T15:56:00.124Z,66.93
2023-10-24T15:58:30.447Z,67.34
2023-10-24T16:00:57.277Z,68.40
2023-10-24T16:03:24.942Z,68.14
2023-10-24T16:05:52.595Z,68.00
2023-10-24T16:08:19.545Z,68.43
2023-10-24T16:10:46.446Z,68.58
2023-10-24T16:13:13.266Z,68.45
2023-10-24T16:15:39.932Z,68.69
2023-10-24T16:18:06.768Z,69.10
2023-10-24T16:20:33.533Z,69.39
2023-10-24T16:23:00.410Z,69.44
2023-10-24T16:25:27.723Z,69.00
2023-10-24T16:27:56.447Z,68.96
2023-10-24T16:30:23.284Z,69.28
2023-10-24T16:32:50.036Z,69.30
2023-10-24T16:35:16.933Z,68.97
2023-10-24T16:37:43.749Z,68.56
2023-10-24T16:40:11.318Z,68.67
2023-10-24T16:42:39.069Z,68.54
2023-10-24T16:45:07.375Z,68.40
2023-10-24T16:47:34.181Z,68.57
2023-10-24T16:50:01.133Z,68.10
2023-10-24T16:52:28.074Z,68.17
2023-10-24T16:54:54.917Z,68.26
2023-10-24T16:57:21.744Z,67.69
2023-10-24T16:59:48.442Z,68.11
2023-10-24T17:02:16.566Z,68.09
2023-10-24T17:04:43.598Z,68.29
2023-10-24T17:07:10.652Z,68.27
2023-10-24T17:09:40.978Z,68.21
2023-10-24T17:12:08.314Z,68.72
2023-10-24T17:14:35.073Z,68.77
2023-10-24T17:17:01.925Z,68.71
2023-10-24T17:19:28.964Z,69.44
2023-10-24T17:21:55.793Z,69.76
2023-10-24T17:24:22.469Z,69.76
2023-10-24T17:26:49.265Z,70.02
2023-10-24T17:29:16.109Z,70.07
2023-10-24T17:31:43.032Z,70.52
2023-10-24T17:34:12.772Z,70.30
2023-10-24T17:36:39.719Z,70.43
2023-10-24T17:39:07.313Z,70.53
2023-10-24T17:41:34.067Z,70.58
2023-10-24T17:44:03.938Z,70.49
2023-10-24T17:46:30.838Z,70.38
2023-10-24T17:48:57.628Z,70.60
2023-10-24T17:51:24.277Z,71.02
2023-10-24T17:53:51.165Z,71.67
2023-10-24T17:56:17.986Z,72.06
2023-10-24T17:58:44.979Z,72.53
2023-10-24T18:01:16.872Z,73.51
2023-10-24T18:03:44.010Z,73.67
2023-10-24T18:06:11.314Z,74.86
2023-10-24T18:08:40.569Z,75.20
2023-10-24T18:11:09.031Z,75.73
2023-10-24T18:13:36.023Z,76.60
2023-10-24T18:16:02.916Z,77.60
2023-10-24T18:18:30.959Z,76.97
2023-10-24T18:20:59.933Z,77.98
2023-10-24T18:23:26.912Z,77.96
2023-10-24T18:25:56.436Z,79.25
2023-10-24T18:28:23.355Z,78.72
2023-10-24T18:30:50.274Z,79.29
2023-10-24T18:33:17.040Z,79.66
2023-10-24T18:35:44.354Z,79.51
2023-10-24T18:38:11.149Z,79.99
2023-10-24T18:40:37.938Z,80.95
2023-10-24T18:43:08.929Z,80.94
2023-10-24T18:45:35.814Z,81.54
2023-10-24T18:48:02.862Z,80.88
2023-10-24T18:50:29.980Z,81.22
2023-10-24T18:52:58.823Z,81.72
2023-10-24T18:55:26.222Z,81.74
2023-10-24T18:57:53.113Z,82.49
2023-10-24T19:00:20.683Z,82.85
2023-10-24T19:05:18.907Z,83.43
2023-10-24T19:07:46.138Z,83.08
2023-10-24T19:10:13.695Z,83.76
2023-10-24T19:12:40.842Z,83.10
2023-10-24T19:15:08.657Z,82.33
2023-10-24T19:17:35.799Z,81.62
2023-10-24T19:20:02.920Z,82.35
2023-10-24T19:22:35.028Z,82.90
2023-10-24T19:25:04.733Z,82.57
2023-10-24T19:27:31.895Z,83.42
2023-10-24T19:29:58.944Z,83.25
2023-10-24T19:32:31.989Z,82.77
2023-10-24T19:34:59.794Z,82.33
2023-10-24T19:37:30.416Z,81.94
2023-10-24T19:39:57.541Z,81.89
2023-10-24T19:42:26.114Z,82.32
2023-10-24T19:44:53.324Z,82.12
2023-10-24T19:47:23.444Z,81.34
2023-10-24T19:49:51.283Z,81.64
2023-10-24T19:52:23.356Z,81.98
2023-10-24T19:54:50.658Z,81.50
2023-10-24T19:57:18.309Z,81.88
2023-10-24T19:59:45.468Z,81.48
2023-10-24T20:02:12.639Z,81.58
2023-10-24T20:04:43.853Z,81.53
2023-10-24T20:07:11.047Z,81.03
2023-10-24T20:11:07.840Z,80.65
2023-10-24T20:12:36.578Z,81.37
2023-10-24T20:15:09.069Z,80.20
2023-10-24T20:17:41.058Z,79.73
2023-10-24T20:20:10.052Z,79.87
2023-10-24T20:22:37.886Z,79.59
2023-10-24T20:25:06.229Z,80.03
2023-10-24T20:27:35.249Z,79.48
2023-10-24T20:30:02.935Z,79.68
2023-10-24T20:32:30.434Z,79.72
2023-10-24T20:34:57.166Z,79.41
2023-10-24T20:37:24.008Z,79.94
2023-10-24T20:39:50.852Z,80.07
2023-10-24T20:42:20.732Z,79.88
2023-10-24T20:44:50.442Z,79.86
2023-10-24T20:47:17.680Z,80.00
2023-10-24T20:49:45.342Z,80.26
2023-10-24T20:52:12.439Z,80.02
2023-10-24T20:54:39.427Z,79.75
2023-10-24T20:57:07.157Z,80.24
2023-10-24T20:59:34.651Z,80.13
2023-10-24T21:02:02.245Z,81.04
2023-10-24T21:04:29.316Z,81.43
2023-10-24T21:06:56.170Z,82.03
2023-10-24T21:09:23.042Z,82.19
2023-10-24T21:11:49.821Z,82.75
2023-10-24T21:14:16.696Z,83.32
2023-10-24T21:16:44.918Z,82.94
2023-10-24T21:19:11.814Z,82.35
2023-10-24T21:21:38.640Z,83.16
2023-10-24T21:24:07.076Z,82.97
2023-10-24T21:26:33.844Z,83.11
2023-10-24T21:29:00.637Z,83.05
2023-10-24T21:31:29.489Z,82.88
2023-10-24T21:33:56.322Z,82.99
2023-10-24T21:36:23.101Z,83.47
2023-10-24T21:38:49.878Z,84.74
2023-10-24T21:41:16.784Z,85.54
2023-10-24T21:43:43.620Z,84.76
2023-10-24T21:46:11.696Z,85.14
2023-10-24T21:48:38.712Z,86.23
2023-10-24T21:51:06.699Z,86.70
2023-10-24T21:53:34.819Z,87.14
2023-10-24T21:56:02.507Z,87.83
2023-10-24T21:58:29.333Z,87.79
2023-10-24T22:00:56.218Z,87.82
2023-10-24T22:03:24.163Z,88.52
2023-10-24T22:05:51.738Z,89.23
2023-10-24T22:08:18.851Z,88.95
2023-10-24T22:10:46.057Z,89.67
2023-10-24T22:13:13.244Z,89.24
2023-10-24T22:15:40.989Z,90.00
2023-10-24T22:18:07.935Z,89.94
2023-10-24T22:20:34.794Z,91.30
2023-10-24T22:23:03.389Z,92.39
2023-10-24T22:25:30.628Z,92.69
2023-10-24T22:28:05.141Z,93.38
2023-10-24T22:30:33.940Z,93.11
2023-10-24T22:33:01.240Z,93.80
2023-10-24T22:35:28.174Z,94.19
2023-10-24T22:37:55.007Z,93.25
2023-10-24T22:40:21.925Z,94.39
2023-10-24T22:42:48.876Z,93.80
2023-10-24T22:45:15.784Z,94.53
2023-10-24T22:47:42.785Z,93.68
2023-10-24T22:50:10.031Z,93.44
2023-10-24T22:52:36.927Z,93.86
2023-10-24T22:55:03.930Z,93.82
2023-10-24T22:57:30.866Z,93.76
2023-10-24T22:59:57.764Z,93.35
2023-10-24T23:02:24.610Z,93.34
2023-10-24T23:04:51.340Z,93.60
2023-10-24T23:07:18.083Z,93.34
2023-10-24T23:09:44.961Z,92.81
2023-10-24T23:12:11.820Z,93.08
2023-10-24T23:14:38.634Z,92.67
2023-10-24T23:17:06.271Z,92.79
2023-10-24T23:19:33.065Z,92.47
2023-10-24T23:21:59.988Z,92.22
2023-10-24T23:24:26.935Z,93.01
2023-10-24T23:26:55.296Z,93.77
2023-10-24T23:29:23.532Z,93.79
2023-10-24T23:31:50.431Z,94.17
2023-10-24T23:34:17.241Z,94.76
2023-10-24T23:36:46.104Z,95.09
2023-10-24T23:39:13.064Z,95.45
2023-10-24T23:41:39.834Z,95.18
2023-10-24T23:44:07.391Z,95.42
2023-10-24T23:46:34.638Z,95.58
2023-10-24T23:49:01.486Z,95.35
2023-10-24T23:51:28.441Z,95.42
2023-10-24T23:53:55.300Z,95.61
2023-10-24T23:56:22.162Z,96.04
2023-10-24T23:58:48.910Z,95.89
